sensor_id;sensor_type;location;lat;lon;timestamp;P1;durP1;ratioP1;P2;durP2;ratioP2
40959;SDS011;27842;52.272;8.052;2023-04-06T00:00:43;15.30;;;5.63;;
40959;SDS011;27842;52.272;8.052;2023-04-06T00:03:08;16.80;;;6.03;;
40959;SDS011;27842;52.272;8.052;2023-04-06T00:05:34;12.98;;;5.47;;
40959;SDS011;27842;52.272;8.052;2023-04-06T00:07:59;15.73;;;6.00;;
40959;SDS011;27842;52.272;8.052;2023-04-06T00:10:25;16.10;;;5.90;;
40959;SDS011;27842;52.272;8.052;2023-04-06T00:12:51;14.17;;;5.37;;
40959;SDS011;27842;52.272;8.052;2023-04-06T00:15:17;15.13;;;5.50;;
40959;SDS011;27842;52.272;8.052;2023-04-06T00:17:43;18.93;;;6.03;;
40959;SDS011;27842;52.272;8.052;2023-04-06T00:20:09;16.07;;;5.80;;
40959;SDS011;27842;52.272;8.052;2023-04-06T00:22:35;14.70;;;5.70;;
40959;SDS011;27842;52.272;8.052;2023-04-06T00:25:00;15.40;;;5.90;;
40959;SDS011;27842;52.272;8.052;2023-04-06T00:27:26;12.93;;;5.33;;
40959;SDS011;27842;52.272;8.052;2023-04-06T00:29:52;15.63;;;5.60;;
40959;SDS011;27842;52.272;8.052;2023-04-06T00:32:17;13.33;;;5.03;;
40959;SDS011;27842;52.272;8.052;2023-04-06T00:34:43;13.67;;;5.53;;
40959;SDS011;27842;52.272;8.052;2023-04-06T00:37:09;14.47;;;5.53;;
40959;SDS011;27842;52.272;8.052;2023-04-06T00:39:35;17.00;;;6.77;;
40959;SDS011;27842;52.272;8.052;2023-04-06T00:42:01;16.00;;;6.47;;
40959;SDS011;27842;52.272;8.052;2023-04-06T00:44:35;15.10;;;5.80;;
40959;SDS011;27842;52.272;8.052;2023-04-06T00:47:01;14.47;;;6.13;;
40959;SDS011;27842;52.272;8.052;2023-04-06T00:49:26;12.50;;;5.37;;
40959;SDS011;27842;52.272;8.052;2023-04-06T00:51:52;14.87;;;5.97;;
40959;SDS011;27842;52.272;8.052;2023-04-06T00:54:18;14.13;;;5.83;;
40959;SDS011;27842;52.272;8.052;2023-04-06T00:56:44;15.03;;;5.83;;
40959;SDS011;27842;52.272;8.052;2023-04-06T00:59:10;14.20;;;5.63;;
40959;SDS011;27842;52.272;8.052;2023-04-06T01:01:37;15.80;;;6.27;;
40959;SDS011;27842;52.272;8.052;2023-04-06T01:04:02;12.97;;;5.47;;
40959;SDS011;27842;52.272;8.052;2023-04-06T01:06:28;13.50;;;5.97;;
40959;SDS011;27842;52.272;8.052;2023-04-06T01:08:54;14.37;;;5.30;;
40959;SDS011;27842;52.272;8.052;2023-04-06T01:11:20;13.00;;;5.80;;
40959;SDS011;27842;52.272;8.052;2023-04-06T01:13:45;13.83;;;6.13;;
40959;SDS011;27842;52.272;8.052;2023-04-06T01:16:11;13.60;;;5.50;;
40959;SDS011;27842;52.272;8.052;2023-04-06T01:18:40;13.90;;;5.83;;
40959;SDS011;27842;52.272;8.052;2023-04-06T01:21:07;15.60;;;5.80;;
40959;SDS011;27842;52.272;8.052;2023-04-06T01:23:33;13.63;;;5.67;;
40959;SDS011;27842;52.272;8.052;2023-04-06T01:25:59;15.07;;;5.70;;
40959;SDS011;27842;52.272;8.052;2023-04-06T01:28:25;19.63;;;6.40;;
40959;SDS011;27842;52.272;8.052;2023-04-06T01:30:50;16.57;;;5.87;;
40959;SDS011;27842;52.272;8.052;2023-04-06T01:33:16;15.87;;;6.60;;
40959;SDS011;27842;52.272;8.052;2023-04-06T01:35:42;15.07;;;6.20;;
40959;SDS011;27842;52.272;8.052;2023-04-06T01:38:07;13.30;;;5.90;;
40959;SDS011;27842;52.272;8.052;2023-04-06T01:40:33;13.17;;;5.73;;
40959;SDS011;27842;52.272;8.052;2023-04-06T01:42:59;15.33;;;6.33;;
40959;SDS011;27842;52.272;8.052;2023-04-06T01:45:24;14.07;;;6.37;;
40959;SDS011;27842;52.272;8.052;2023-04-06T01:47:50;14.20;;;6.00;;
40959;SDS011;27842;52.272;8.052;2023-04-06T01:50:15;16.47;;;6.23;;
40959;SDS011;27842;52.272;8.052;2023-04-06T01:52:41;14.93;;;6.33;;
40959;SDS011;27842;52.272;8.052;2023-04-06T01:55:07;15.57;;;6.60;;
40959;SDS011;27842;52.272;8.052;2023-04-06T01:57:32;16.77;;;6.33;;
40959;SDS011;27842;52.272;8.052;2023-04-06T01:59:58;14.50;;;6.17;;
40959;SDS011;27842;52.272;8.052;2023-04-06T02:02:24;14.47;;;6.57;;
40959;SDS011;27842;52.272;8.052;2023-04-06T02:04:49;15.73;;;6.10;;
40959;SDS011;27842;52.272;8.052;2023-04-06T02:07:15;15.77;;;6.83;;
40959;SDS011;27842;52.272;8.052;2023-04-06T02:09:41;14.90;;;6.10;;
40959;SDS011;27842;52.272;8.052;2023-04-06T02:12:06;15.57;;;6.23;;
40959;SDS011;27842;52.272;8.052;2023-04-06T02:14:32;14.37;;;6.10;;
40959;SDS011;27842;52.272;8.052;2023-04-06T02:16:58;16.20;;;6.43;;
40959;SDS011;27842;52.272;8.052;2023-04-06T02:19:23;15.87;;;6.63;;
40959;SDS011;27842;52.272;8.052;2023-04-06T02:21:49;15.03;;;6.13;;
40959;SDS011;27842;52.272;8.052;2023-04-06T02:24:14;14.33;;;6.17;;
40959;SDS011;27842;52.272;8.052;2023-04-06T02:26:40;16.33;;;6.83;;
40959;SDS011;27842;52.272;8.052;2023-04-06T02:29:05;15.53;;;6.90;;
40959;SDS011;27842;52.272;8.052;2023-04-06T02:31:32;15.93;;;6.23;;
40959;SDS011;27842;52.272;8.052;2023-04-06T02:33:57;15.53;;;6.33;;
40959;SDS011;27842;52.272;8.052;2023-04-06T02:36:23;15.77;;;7.03;;
40959;SDS011;27842;52.272;8.052;2023-04-06T02:38:48;16.73;;;7.10;;
40959;SDS011;27842;52.272;8.052;2023-04-06T02:41:14;17.23;;;6.80;;
40959;SDS011;27842;52.272;8.052;2023-04-06T02:43:40;15.13;;;6.23;;
40959;SDS011;27842;52.272;8.052;2023-04-06T02:46:05;13.37;;;6.27;;
40959;SDS011;27842;52.272;8.052;2023-04-06T02:48:31;16.20;;;6.60;;
40959;SDS011;27842;52.272;8.052;2023-04-06T02:50:56;16.30;;;6.77;;
40959;SDS011;27842;52.272;8.052;2023-04-06T02:53:22;15.67;;;6.63;;
40959;SDS011;27842;52.272;8.052;2023-04-06T02:55:47;14.63;;;6.93;;
40959;SDS011;27842;52.272;8.052;2023-04-06T02:58:13;15.77;;;6.80;;
40959;SDS011;27842;52.272;8.052;2023-04-06T03:00:39;15.63;;;6.83;;
40959;SDS011;27842;52.272;8.052;2023-04-06T03:03:04;15.10;;;6.50;;
40959;SDS011;27842;52.272;8.052;2023-04-06T03:05:30;14.57;;;6.73;;
40959;SDS011;27842;52.272;8.052;2023-04-06T03:07:56;17.77;;;7.10;;
40959;SDS011;27842;52.272;8.052;2023-04-06T03:10:21;15.83;;;6.27;;
40959;SDS011;27842;52.272;8.052;2023-04-06T03:12:47;16.93;;;6.83;;
40959;SDS011;27842;52.272;8.052;2023-04-06T03:15:12;15.53;;;6.17;;
40959;SDS011;27842;52.272;8.052;2023-04-06T03:17:38;14.40;;;6.60;;
40959;SDS011;27842;52.272;8.052;2023-04-06T03:20:04;16.93;;;6.63;;
40959;SDS011;27842;52.272;8.052;2023-04-06T03:22:30;15.47;;;6.53;;
40959;SDS011;27842;52.272;8.052;2023-04-06T03:24:55;17.63;;;6.90;;
40959;SDS011;27842;52.272;8.052;2023-04-06T03:27:21;14.20;;;6.50;;
40959;SDS011;27842;52.272;8.052;2023-04-06T03:29:47;16.23;;;7.13;;
40959;SDS011;27842;52.272;8.052;2023-04-06T03:32:12;15.23;;;6.40;;
40959;SDS011;27842;52.272;8.052;2023-04-06T03:34:38;15.47;;;6.80;;
40959;SDS011;27842;52.272;8.052;2023-04-06T03:37:04;16.43;;;6.80;;
40959;SDS011;27842;52.272;8.052;2023-04-06T03:39:30;15.33;;;6.70;;
40959;SDS011;27842;52.272;8.052;2023-04-06T03:41:55;16.37;;;7.07;;
40959;SDS011;27842;52.272;8.052;2023-04-06T03:44:21;16.47;;;6.73;;
40959;SDS011;27842;52.272;8.052;2023-04-06T03:46:46;13.93;;;6.80;;
40959;SDS011;27842;52.272;8.052;2023-04-06T03:49:12;15.27;;;6.73;;
40959;SDS011;27842;52.272;8.052;2023-04-06T03:51:38;15.90;;;7.00;;
40959;SDS011;27842;52.272;8.052;2023-04-06T03:54:03;15.87;;;6.70;;
40959;SDS011;27842;52.272;8.052;2023-04-06T03:56:29;19.70;;;7.40;;
40959;SDS011;27842;52.272;8.052;2023-04-06T03:58:55;15.33;;;7.07;;
40959;SDS011;27842;52.272;8.052;2023-04-06T04:01:20;16.33;;;6.87;;
40959;SDS011;27842;52.272;8.052;2023-04-06T04:03:46;17.07;;;7.43;;
40959;SDS011;27842;52.272;8.052;2023-04-06T04:06:12;17.07;;;7.20;;
40959;SDS011;27842;52.272;8.052;2023-04-06T04:08:37;15.93;;;7.00;;
40959;SDS011;27842;52.272;8.052;2023-04-06T04:11:03;17.10;;;7.07;;
40959;SDS011;27842;52.272;8.052;2023-04-06T04:13:29;14.97;;;6.93;;
40959;SDS011;27842;52.272;8.052;2023-04-06T04:15:55;16.47;;;7.40;;
40959;SDS011;27842;52.272;8.052;2023-04-06T04:18:21;16.27;;;7.27;;
40959;SDS011;27842;52.272;8.052;2023-04-06T04:20:46;17.03;;;7.03;;
40959;SDS011;27842;52.272;8.052;2023-04-06T04:23:12;16.83;;;7.60;;
40959;SDS011;27842;52.272;8.052;2023-04-06T04:25:37;18.17;;;7.13;;
40959;SDS011;27842;52.272;8.052;2023-04-06T04:28:03;17.17;;;7.67;;
40959;SDS011;27842;52.272;8.052;2023-04-06T04:30:29;16.27;;;7.03;;
40959;SDS011;27842;52.272;8.052;2023-04-06T04:32:54;17.53;;;7.10;;
40959;SDS011;27842;52.272;8.052;2023-04-06T04:35:20;14.53;;;6.73;;
40959;SDS011;27842;52.272;8.052;2023-04-06T04:37:46;15.80;;;7.57;;
40959;SDS011;27842;52.272;8.052;2023-04-06T04:40:11;17.27;;;7.47;;
40959;SDS011;27842;52.272;8.052;2023-04-06T04:42:37;17.03;;;6.90;;
40959;SDS011;27842;52.272;8.052;2023-04-06T04:45:03;14.43;;;6.93;;
40959;SDS011;27842;52.272;8.052;2023-04-06T04:47:29;19.27;;;7.10;;
40959;SDS011;27842;52.272;8.052;2023-04-06T04:49:54;16.63;;;7.20;;
40959;SDS011;27842;52.272;8.052;2023-04-06T04:52:20;17.27;;;7.03;;
40959;SDS011;27842;52.272;8.052;2023-04-06T04:54:46;15.87;;;7.07;;
40959;SDS011;27842;52.272;8.052;2023-04-06T04:57:12;15.63;;;7.20;;
40959;SDS011;27842;52.272;8.052;2023-04-06T04:59:37;15.13;;;7.10;;
40959;SDS011;27842;52.272;8.052;2023-04-06T05:02:03;16.20;;;7.93;;
40959;SDS011;27842;52.272;8.052;2023-04-06T05:04:29;19.97;;;7.07;;
40959;SDS011;27842;52.272;8.052;2023-04-06T05:07:05;16.87;;;7.20;;
40959;SDS011;27842;52.272;8.052;2023-04-06T05:09:33;18.60;;;7.47;;
40959;SDS011;27842;52.272;8.052;2023-04-06T05:11:59;17.67;;;7.47;;
40959;SDS011;27842;52.272;8.052;2023-04-06T05:14:25;17.20;;;7.60;;
40959;SDS011;27842;52.272;8.052;2023-04-06T05:16:51;15.53;;;7.23;;
40959;SDS011;27842;52.272;8.052;2023-04-06T05:19:17;20.77;;;8.03;;
40959;SDS011;27842;52.272;8.052;2023-04-06T05:21:43;18.30;;;8.10;;
40959;SDS011;27842;52.272;8.052;2023-04-06T05:24:08;18.40;;;8.03;;
40959;SDS011;27842;52.272;8.052;2023-04-06T05:26:34;16.23;;;8.10;;
40959;SDS011;27842;52.272;8.052;2023-04-06T05:29:00;17.23;;;8.00;;
40959;SDS011;27842;52.272;8.052;2023-04-06T05:31:26;15.67;;;7.73;;
40959;SDS011;27842;52.272;8.052;2023-04-06T05:33:51;17.73;;;8.97;;
40959;SDS011;27842;52.272;8.052;2023-04-06T05:36:17;17.17;;;8.13;;
40959;SDS011;27842;52.272;8.052;2023-04-06T05:38:43;19.40;;;7.70;;
40959;SDS011;27842;52.272;8.052;2023-04-06T05:41:08;16.97;;;8.30;;
40959;SDS011;27842;52.272;8.052;2023-04-06T05:43:34;18.23;;;8.00;;
40959;SDS011;27842;52.272;8.052;2023-04-06T05:46:00;17.63;;;8.17;;
40959;SDS011;27842;52.272;8.052;2023-04-06T05:48:25;17.23;;;8.27;;
40959;SDS011;27842;52.272;8.052;2023-04-06T05:50:51;18.47;;;8.30;;
40959;SDS011;27842;52.272;8.052;2023-04-06T05:53:19;18.50;;;8.03;;
40959;SDS011;27842;52.272;8.052;2023-04-06T05:55:46;16.27;;;7.87;;
40959;SDS011;27842;52.272;8.052;2023-04-06T05:58:12;20.27;;;8.20;;
40959;SDS011;27842;52.272;8.052;2023-04-06T06:00:37;18.40;;;8.60;;
40959;SDS011;27842;52.272;8.052;2023-04-06T06:03:03;29.77;;;11.13;;
40959;SDS011;27842;52.272;8.052;2023-04-06T06:05:30;18.87;;;8.40;;
40959;SDS011;27842;52.272;8.052;2023-04-06T06:07:56;18.57;;;8.50;;
40959;SDS011;27842;52.272;8.052;2023-04-06T06:10:21;20.27;;;8.37;;
40959;SDS011;27842;52.272;8.052;2023-04-06T06:12:47;21.43;;;8.67;;
40959;SDS011;27842;52.272;8.052;2023-04-06T06:15:13;20.23;;;8.60;;
40959;SDS011;27842;52.272;8.052;2023-04-06T06:17:38;17.83;;;8.43;;
40959;SDS011;27842;52.272;8.052;2023-04-06T06:20:05;21.83;;;8.43;;
40959;SDS011;27842;52.272;8.052;2023-04-06T06:22:32;19.47;;;8.97;;
40959;SDS011;27842;52.272;8.052;2023-04-06T06:24:58;20.73;;;8.47;;
40959;SDS011;27842;52.272;8.052;2023-04-06T06:27:23;18.97;;;8.47;;
40959;SDS011;27842;52.272;8.052;2023-04-06T06:29:49;18.03;;;8.03;;
40959;SDS011;27842;52.272;8.052;2023-04-06T06:32:15;20.77;;;8.67;;
40959;SDS011;27842;52.272;8.052;2023-04-06T06:34:40;20.70;;;8.60;;
40959;SDS011;27842;52.272;8.052;2023-04-06T06:37:06;18.90;;;8.07;;
40959;SDS011;27842;52.272;8.052;2023-04-06T06:39:32;17.93;;;8.00;;
40959;SDS011;27842;52.272;8.052;2023-04-06T06:41:57;16.47;;;8.43;;
40959;SDS011;27842;52.272;8.052;2023-04-06T06:44:26;20.33;;;10.20;;
40959;SDS011;27842;52.272;8.052;2023-04-06T06:46:52;17.13;;;8.43;;
40959;SDS011;27842;52.272;8.052;2023-04-06T06:49:17;16.60;;;7.70;;
40959;SDS011;27842;52.272;8.052;2023-04-06T06:51:43;18.73;;;8.70;;
40959;SDS011;27842;52.272;8.052;2023-04-06T06:54:10;17.97;;;7.97;;
40959;SDS011;27842;52.272;8.052;2023-04-06T06:56:36;17.67;;;8.40;;
40959;SDS011;27842;52.272;8.052;2023-04-06T06:59:03;17.07;;;8.07;;
40959;SDS011;27842;52.272;8.052;2023-04-06T07:01:28;22.40;;;8.90;;
40959;SDS011;27842;52.272;8.052;2023-04-06T07:03:54;18.40;;;8.30;;
40959;SDS011;27842;52.272;8.052;2023-04-06T07:06:20;17.60;;;8.20;;
40959;SDS011;27842;52.272;8.052;2023-04-06T07:08:46;18.00;;;8.60;;
40959;SDS011;27842;52.272;8.052;2023-04-06T07:11:11;17.53;;;7.90;;
40959;SDS011;27842;52.272;8.052;2023-04-06T07:13:37;17.10;;;7.67;;
40959;SDS011;27842;52.272;8.052;2023-04-06T07:16:03;18.20;;;8.97;;
40959;SDS011;27842;52.272;8.052;2023-04-06T07:18:28;17.07;;;8.43;;
40959;SDS011;27842;52.272;8.052;2023-04-06T07:20:54;17.87;;;8.97;;
40959;SDS011;27842;52.272;8.052;2023-04-06T07:23:20;19.30;;;8.13;;
40959;SDS011;27842;52.272;8.052;2023-04-06T07:25:46;17.77;;;7.97;;
40959;SDS011;27842;52.272;8.052;2023-04-06T07:28:11;16.67;;;8.03;;
40959;SDS011;27842;52.272;8.052;2023-04-06T07:30:37;17.20;;;7.90;;
40959;SDS011;27842;52.272;8.052;2023-04-06T07:33:03;16.43;;;8.17;;
40959;SDS011;27842;52.272;8.052;2023-04-06T07:35:30;17.47;;;8.73;;
40959;SDS011;27842;52.272;8.052;2023-04-06T07:37:56;17.77;;;8.70;;
40959;SDS011;27842;52.272;8.052;2023-04-06T07:40:21;19.03;;;8.40;;
40959;SDS011;27842;52.272;8.052;2023-04-06T07:42:47;18.80;;;8.73;;
40959;SDS011;27842;52.272;8.052;2023-04-06T07:45:13;18.20;;;8.30;;
40959;SDS011;27842;52.272;8.052;2023-04-06T07:47:40;19.00;;;9.03;;
40959;SDS011;27842;52.272;8.052;2023-04-06T07:50:06;16.83;;;8.23;;
40959;SDS011;27842;52.272;8.052;2023-04-06T07:52:32;19.23;;;8.93;;
40959;SDS011;27842;52.272;8.052;2023-04-06T07:54:58;17.87;;;8.40;;
40959;SDS011;27842;52.272;8.052;2023-04-06T07:57:24;19.53;;;8.80;;
40959;SDS011;27842;52.272;8.052;2023-04-06T07:59:50;19.60;;;9.03;;
40959;SDS011;27842;52.272;8.052;2023-04-06T08:02:15;19.37;;;9.07;;
40959;SDS011;27842;52.272;8.052;2023-04-06T08:04:41;18.07;;;8.43;;
40959;SDS011;27842;52.272;8.052;2023-04-06T08:07:07;20.47;;;8.60;;
40959;SDS011;27842;52.272;8.052;2023-04-06T08:09:32;19.20;;;8.17;;
40959;SDS011;27842;52.272;8.052;2023-04-06T08:11:58;16.43;;;7.50;;
40959;SDS011;27842;52.272;8.052;2023-04-06T08:14:24;18.07;;;8.03;;
40959;SDS011;27842;52.272;8.052;2023-04-06T08:16:49;16.42;;;7.32;;
40959;SDS011;27842;52.272;8.052;2023-04-06T08:19:18;16.50;;;7.53;;
40959;SDS011;27842;52.272;8.052;2023-04-06T08:21:47;17.10;;;7.57;;
40959;SDS011;27842;52.272;8.052;2023-04-06T08:24:13;16.75;;;7.45;;
40959;SDS011;27842;52.272;8.052;2023-04-06T08:26:39;17.15;;;7.53;;
40959;SDS011;27842;52.272;8.052;2023-04-06T08:29:05;16.30;;;7.20;;
40959;SDS011;27842;52.272;8.052;2023-04-06T08:31:34;15.00;;;7.00;;
40959;SDS011;27842;52.272;8.052;2023-04-06T08:34:00;16.17;;;6.85;;
40959;SDS011;27842;52.272;8.052;2023-04-06T08:36:27;18.10;;;7.32;;
40959;SDS011;27842;52.272;8.052;2023-04-06T08:38:52;16.73;;;7.03;;
40959;SDS011;27842;52.272;8.052;2023-04-06T08:41:18;17.55;;;7.50;;
40959;SDS011;27842;52.272;8.052;2023-04-06T08:43:49;17.95;;;7.22;;
40959;SDS011;27842;52.272;8.052;2023-04-06T08:46:20;17.65;;;7.55;;
40959;SDS011;27842;52.272;8.052;2023-04-06T08:48:46;15.35;;;7.30;;
40959;SDS011;27842;52.272;8.052;2023-04-06T08:51:14;17.95;;;7.88;;
40959;SDS011;27842;52.272;8.052;2023-04-06T08:53:40;17.42;;;7.88;;
40959;SDS011;27842;52.272;8.052;2023-04-06T08:56:06;16.77;;;8.13;;
40959;SDS011;27842;52.272;8.052;2023-04-06T08:58:35;17.70;;;8.20;;
40959;SDS011;27842;52.272;8.052;2023-04-06T09:01:06;18.52;;;8.90;;
40959;SDS011;27842;52.272;8.052;2023-04-06T09:03:35;17.67;;;8.27;;
40959;SDS011;27842;52.272;8.052;2023-04-06T09:06:04;18.38;;;8.68;;
40959;SDS011;27842;52.272;8.052;2023-04-06T09:08:31;19.35;;;7.82;;
40959;SDS011;27842;52.272;8.052;2023-04-06T09:10:57;18.10;;;8.68;;
40959;SDS011;27842;52.272;8.052;2023-04-06T09:13:23;16.65;;;8.25;;
40959;SDS011;27842;52.272;8.052;2023-04-06T09:18:44;19.33;;;8.95;;
40959;SDS011;27842;52.272;8.052;2023-04-06T09:21:10;22.70;;;8.57;;
40959;SDS011;27842;52.272;8.052;2023-04-06T09:23:36;18.77;;;8.45;;
40959;SDS011;27842;52.272;8.052;2023-04-06T09:26:15;17.65;;;8.32;;
40959;SDS011;27842;52.272;8.052;2023-04-06T09:31:27;20.92;;;10.02;;
40959;SDS011;27842;52.272;8.052;2023-04-06T09:33:54;18.45;;;8.93;;
40959;SDS011;27842;52.272;8.052;2023-04-06T09:36:34;19.33;;;9.23;;
40959;SDS011;27842;52.272;8.052;2023-04-06T09:39:04;21.38;;;10.45;;
40959;SDS011;27842;52.272;8.052;2023-04-06T09:41:31;19.40;;;9.77;;
40959;SDS011;27842;52.272;8.052;2023-04-06T09:44:02;23.83;;;10.40;;
40959;SDS011;27842;52.272;8.052;2023-04-06T09:46:31;20.02;;;9.50;;
40959;SDS011;27842;52.272;8.052;2023-04-06T09:48:59;18.85;;;8.73;;
40959;SDS011;27842;52.272;8.052;2023-04-06T09:51:30;18.98;;;8.80;;
40959;SDS011;27842;52.272;8.052;2023-04-06T09:53:57;19.95;;;9.63;;
40959;SDS011;27842;52.272;8.052;2023-04-06T09:56:30;19.60;;;9.60;;
40959;SDS011;27842;52.272;8.052;2023-04-06T09:59:02;19.02;;;8.88;;
40959;SDS011;27842;52.272;8.052;2023-04-06T10:01:34;21.63;;;9.60;;
40959;SDS011;27842;52.272;8.052;2023-04-06T10:07:13;19.38;;;9.10;;
40959;SDS011;27842;52.272;8.052;2023-04-06T10:09:40;21.80;;;9.80;;
40959;SDS011;27842;52.272;8.052;2023-04-06T10:12:10;18.52;;;9.18;;
40959;SDS011;27842;52.272;8.052;2023-04-06T10:14:37;20.83;;;9.57;;
40959;SDS011;27842;52.272;8.052;2023-04-06T10:17:04;19.52;;;9.65;;
40959;SDS011;27842;52.272;8.052;2023-04-06T10:22:32;20.13;;;9.73;;
40959;SDS011;27842;52.272;8.052;2023-04-06T10:25:08;20.23;;;9.43;;
40959;SDS011;27842;52.272;8.052;2023-04-06T10:27:33;19.35;;;9.68;;
40959;SDS011;27842;52.272;8.052;2023-04-06T10:30:06;22.15;;;9.93;;
40959;SDS011;27842;52.272;8.052;2023-04-06T10:32:35;22.13;;;10.93;;
40959;SDS011;27842;52.272;8.052;2023-04-06T10:35:06;19.65;;;9.82;;
40959;SDS011;27842;52.272;8.052;2023-04-06T10:37:52;20.27;;;9.75;;
40959;SDS011;27842;52.272;8.052;2023-04-06T10:42:52;21.95;;;10.23;;
40959;SDS011;27842;52.272;8.052;2023-04-06T10:45:19;23.75;;;11.45;;
40959;SDS011;27842;52.272;8.052;2023-04-06T10:47:52;20.58;;;10.50;;
40959;SDS011;27842;52.272;8.052;2023-04-06T10:50:18;21.25;;;10.93;;
40959;SDS011;27842;52.272;8.052;2023-04-06T10:52:44;22.50;;;11.25;;
40959;SDS011;27842;52.272;8.052;2023-04-06T10:55:11;20.27;;;11.25;;
40959;SDS011;27842;52.272;8.052;2023-04-06T10:57:39;23.27;;;11.57;;
40959;SDS011;27842;52.272;8.052;2023-04-06T11:00:06;22.73;;;11.32;;
40959;SDS011;27842;52.272;8.052;2023-04-06T11:02:35;24.60;;;12.65;;
40959;SDS011;27842;52.272;8.052;2023-04-06T11:05:03;26.52;;;15.35;;
40959;SDS011;27842;52.272;8.052;2023-04-06T11:07:29;25.40;;;13.32;;
40959;SDS011;27842;52.272;8.052;2023-04-06T11:09:55;21.45;;;11.38;;
40959;SDS011;27842;52.272;8.052;2023-04-06T11:14:58;26.13;;;11.88;;
40959;SDS011;27842;52.272;8.052;2023-04-06T11:17:32;21.58;;;10.70;;
40959;SDS011;27842;52.272;8.052;2023-04-06T11:20:03;21.98;;;10.80;;
40959;SDS011;27842;52.272;8.052;2023-04-06T11:22:34;24.63;;;10.90;;
40959;SDS011;27842;52.272;8.052;2023-04-06T11:25:07;20.75;;;10.18;;
40959;SDS011;27842;52.272;8.052;2023-04-06T11:27:33;20.30;;;11.32;;
40959;SDS011;27842;52.272;8.052;2023-04-06T11:30:00;19.38;;;10.68;;
40959;SDS011;27842;52.272;8.052;2023-04-06T11:32:26;20.80;;;9.90;;
40959;SDS011;27842;52.272;8.052;2023-04-06T11:34:52;22.00;;;11.88;;
40959;SDS011;27842;52.272;8.052;2023-04-06T11:37:17;20.40;;;9.77;;
40959;SDS011;27842;52.272;8.052;2023-04-06T11:39:47;20.90;;;11.05;;
40959;SDS011;27842;52.272;8.052;2023-04-06T11:42:21;19.95;;;10.02;;
40959;SDS011;27842;52.272;8.052;2023-04-06T11:44:49;19.75;;;10.07;;
40959;SDS011;27842;52.272;8.052;2023-04-06T11:47:16;20.38;;;10.05;;
40959;SDS011;27842;52.272;8.052;2023-04-06T11:49:42;17.92;;;9.18;;
40959;SDS011;27842;52.272;8.052;2023-04-06T11:52:20;20.27;;;10.13;;
40959;SDS011;27842;52.272;8.052;2023-04-06T11:54:48;21.15;;;10.15;;
40959;SDS011;27842;52.272;8.052;2023-04-06T11:57:15;21.30;;;10.65;;
40959;SDS011;27842;52.272;8.052;2023-04-06T11:59:41;19.95;;;10.85;;
40959;SDS011;27842;52.272;8.052;2023-04-06T12:02:07;19.98;;;9.93;;
40959;SDS011;27842;52.272;8.052;2023-04-06T12:04:33;22.23;;;10.40;;
40959;SDS011;27842;52.272;8.052;2023-04-06T12:06:59;20.80;;;11.05;;
40959;SDS011;27842;52.272;8.052;2023-04-06T12:09:25;20.15;;;10.38;;
40959;SDS011;27842;52.272;8.052;2023-04-06T12:11:51;19.35;;;10.43;;
40959;SDS011;27842;52.272;8.052;2023-04-06T12:14:16;19.10;;;10.05;;
40959;SDS011;27842;52.272;8.052;2023-04-06T12:16:42;19.10;;;9.43;;
40959;SDS011;27842;52.272;8.052;2023-04-06T12:19:08;19.40;;;9.02;;
40959;SDS011;27842;52.272;8.052;2023-04-06T12:21:34;19.08;;;9.77;;
40959;SDS011;27842;52.272;8.052;2023-04-06T12:24:02;20.52;;;9.48;;
40959;SDS011;27842;52.272;8.052;2023-04-06T12:26:29;21.73;;;10.48;;
40959;SDS011;27842;52.272;8.052;2023-04-06T12:28:55;19.67;;;9.88;;
40959;SDS011;27842;52.272;8.052;2023-04-06T12:31:21;19.70;;;9.48;;
40959;SDS011;27842;52.272;8.052;2023-04-06T12:33:50;17.83;;;9.38;;
40959;SDS011;27842;52.272;8.052;2023-04-06T12:36:17;19.17;;;9.55;;
40959;SDS011;27842;52.272;8.052;2023-04-06T12:38:44;19.15;;;9.88;;
40959;SDS011;27842;52.272;8.052;2023-04-06T12:41:13;19.25;;;10.05;;
40959;SDS011;27842;52.272;8.052;2023-04-06T12:43:40;20.60;;;11.10;;
40959;SDS011;27842;52.272;8.052;2023-04-06T12:46:07;19.63;;;10.90;;
40959;SDS011;27842;52.272;8.052;2023-04-06T12:48:32;20.92;;;10.48;;
40959;SDS011;27842;52.272;8.052;2023-04-06T12:51:02;21.17;;;10.32;;
40959;SDS011;27842;52.272;8.052;2023-04-06T12:53:29;20.08;;;9.98;;
40959;SDS011;27842;52.272;8.052;2023-04-06T12:55:56;22.63;;;10.52;;
40959;SDS011;27842;52.272;8.052;2023-04-06T12:58:23;19.42;;;10.30;;
40959;SDS011;27842;52.272;8.052;2023-04-06T13:00:50;20.10;;;10.65;;
40959;SDS011;27842;52.272;8.052;2023-04-06T13:03:16;21.35;;;11.38;;
40959;SDS011;27842;52.272;8.052;2023-04-06T13:05:46;23.83;;;11.82;;
40959;SDS011;27842;52.272;8.052;2023-04-06T13:08:13;22.30;;;12.45;;
40959;SDS011;27842;52.272;8.052;2023-04-06T13:10:43;22.38;;;11.50;;
40959;SDS011;27842;52.272;8.052;2023-04-06T13:13:09;20.95;;;11.05;;
40959;SDS011;27842;52.272;8.052;2023-04-06T13:15:35;22.83;;;11.57;;
40959;SDS011;27842;52.272;8.052;2023-04-06T13:18:01;21.15;;;10.88;;
40959;SDS011;27842;52.272;8.052;2023-04-06T13:20:27;21.35;;;10.23;;
40959;SDS011;27842;52.272;8.052;2023-04-06T13:22:53;22.15;;;10.95;;
40959;SDS011;27842;52.272;8.052;2023-04-06T13:25:19;20.73;;;11.25;;
40959;SDS011;27842;52.272;8.052;2023-04-06T13:27:45;22.75;;;11.30;;
40959;SDS011;27842;52.272;8.052;2023-04-06T13:30:12;22.75;;;11.50;;
40959;SDS011;27842;52.272;8.052;2023-04-06T13:32:38;21.60;;;11.45;;
40959;SDS011;27842;52.272;8.052;2023-04-06T13:35:04;23.05;;;11.82;;
40959;SDS011;27842;52.272;8.052;2023-04-06T13:37:31;23.50;;;11.75;;
40959;SDS011;27842;52.272;8.052;2023-04-06T13:39:57;20.33;;;11.05;;
40959;SDS011;27842;52.272;8.052;2023-04-06T13:42:22;20.52;;;10.57;;
40959;SDS011;27842;52.272;8.052;2023-04-06T13:44:48;21.30;;;11.23;;
40959;SDS011;27842;52.272;8.052;2023-04-06T13:47:15;19.65;;;11.00;;
40959;SDS011;27842;52.272;8.052;2023-04-06T13:49:41;21.95;;;11.10;;
40959;SDS011;27842;52.272;8.052;2023-04-06T13:52:07;20.90;;;11.02;;
40959;SDS011;27842;52.272;8.052;2023-04-06T13:54:35;23.95;;;12.30;;
40959;SDS011;27842;52.272;8.052;2023-04-06T13:57:00;24.13;;;12.43;;
40959;SDS011;27842;52.272;8.052;2023-04-06T13:59:31;22.02;;;11.20;;
40959;SDS011;27842;52.272;8.052;2023-04-06T14:01:58;21.42;;;11.68;;
40959;SDS011;27842;52.272;8.052;2023-04-06T14:04:23;23.25;;;11.65;;
40959;SDS011;27842;52.272;8.052;2023-04-06T14:06:49;22.08;;;12.15;;
40959;SDS011;27842;52.272;8.052;2023-04-06T14:09:14;24.60;;;12.10;;
40959;SDS011;27842;52.272;8.052;2023-04-06T14:11:40;23.73;;;12.40;;
40959;SDS011;27842;52.272;8.052;2023-04-06T14:14:06;24.13;;;12.85;;
40959;SDS011;27842;52.272;8.052;2023-04-06T14:16:32;22.70;;;12.68;;
40959;SDS011;27842;52.272;8.052;2023-04-06T14:18:57;23.88;;;11.70;;
40959;SDS011;27842;52.272;8.052;2023-04-06T14:21:23;22.35;;;11.27;;
40959;SDS011;27842;52.272;8.052;2023-04-06T14:23:49;21.50;;;11.88;;
40959;SDS011;27842;52.272;8.052;2023-04-06T14:26:15;21.85;;;11.93;;
40959;SDS011;27842;52.272;8.052;2023-04-06T14:28:41;21.33;;;11.60;;
40959;SDS011;27842;52.272;8.052;2023-04-06T14:31:11;20.33;;;11.15;;
40959;SDS011;27842;52.272;8.052;2023-04-06T14:33:38;20.00;;;10.18;;
40959;SDS011;27842;52.272;8.052;2023-04-06T14:36:05;21.95;;;9.85;;
40959;SDS011;27842;52.272;8.052;2023-04-06T14:38:31;18.00;;;8.57;;
40959;SDS011;27842;52.272;8.052;2023-04-06T14:40:57;18.25;;;8.35;;
40959;SDS011;27842;52.272;8.052;2023-04-06T14:43:23;19.13;;;9.48;;